KARA/ARA METAR and TAF weather

Enter ICAO airport designator
Station Type Date Time Source
KARA METAR 2018/09/21 22:53 UTC NOAA

KARA 212253Z 16003KT 10SM FEW027 29/24 A2997 RMK AO2 LTG DSNT W RAE01 SLP147 P0000 T02890244


Station Type Date Time Source
KARA Decoded METAR 2018/09/21 22:53 UTC NOAA

NEW IBERIA ACADIANA REGIONAL, LA, United States (KARA) 30-02N 091-53W 18M
Sep 21, 2018 - 06:53 PM EDT / 2018.09.21 2253 UTC
Wind: from the SSE (160 degrees) at 3 MPH (3 KT):0
Visibility: 10 mile(s):0
Sky conditions: mostly clear
Weather: Lightning observed
Precipitation last hour: A trace
Temperature: 84.0 F (28.9 C)
Dew Point: 75.9 F (24.4 C)
Relative Humidity: 76%
Pressure (altimeter): 29.97 in. Hg (1014 hPa)
ob: KARA 212253Z 16003KT 10SM FEW027 29/24 A2997 RMK AO2 LTG DSNT W RAE01 SLP147 P0000 T02890244
cycle: 23

Station Type Date Time Source
KARA TAF 2018/09/21 20:57 UTC NOAA

TAF KARA 211945Z 2120/2218 17010KT P6SM VCTS SCT035CB BKN060
FM212100 18009KT P6SM VCTS SCT040CB BKN250
FM220300 VRB04KT P6SM SCT250
FM221500 VRB04KT P6SM SCT025 BKN035


Example: see airport list